Time;durP1;ratioP1;P1;durP2;ratioP2;P2;SDS_P1;SDS_P2;PMS_P1;PMS_P2;Temp;Humidity;BMP_temperature;BMP_pressure;BME280_temperature;BME280_humidity;BME280_pressure;Samples;Min_cycle;Max_cycle;Signal;HPM_P1;HPM_P2
2022/05/22 00:00:34;;;;;;;18.60;7.93;;;19.70;90.40;;;;;;5073580;28;20047;-69
2022/05/22 00:03:38;;;;;;;20.42;8.25;;;19.50;90.60;;;;;;5073369;28;20043;-69
2022/05/22 00:06:42;;;;;;;19.20;8.32;;;19.40;91.00;;;;;;5073319;28;20048;-69
2022/05/22 00:09:46;;;;;;;20.75;7.78;;;19.50;90.90;;;;;;5073041;28;20040;-69
2022/05/22 00:12:50;;;;;;;16.92;7.70;;;19.50;91.00;;;;;;5073331;28;20039;-69
2022/05/22 00:19:19;;;;;;;17.67;9.38;;;19.40;91.20;;;;;;5072739;28;20047;-69
2022/05/22 00:22:24;;;;;;;22.58;8.90;;;19.20;91.40;;;;;;5072852;28;20039;-69
2022/05/22 00:25:28;;;;;;;26.70;8.45;;;19.10;92.10;;;;;;5072483;28;20051;-69
2022/05/22 00:28:32;;;;;;;17.90;9.52;;;19.10;92.20;;;;;;5072931;28;20046;-69
2022/05/22 00:31:36;;;;;;;14.88;7.88;;;19.00;92.10;;;;;;5060191;28;20055;-69
2022/05/22 00:34:40;;;;;;;16.00;8.95;;;19.00;92.60;;;;;;5072730;28;20522;-69
2022/05/22 00:37:44;;;;;;;17.08;8.73;;;19.10;92.40;;;;;;5060173;28;20051;-69
2022/05/22 00:40:48;;;;;;;16.73;9.02;;;19.20;92.20;;;;;;5072620;28;20046;-69
2022/05/22 00:43:53;;;;;;;17.40;9.45;;;19.30;92.10;;;;;;5060310;28;20043;-69
2022/05/22 00:46:58;;;;;;;20.63;8.75;;;19.40;92.10;;;;;;5072380;28;20051;-69
2022/05/22 00:50:03;;;;;;;21.73;10.70;;;19.40;92.10;;;;;;5060119;28;20036;-69
2022/05/22 00:53:07;;;;;;;17.77;9.85;;;19.40;92.00;;;;;;5059862;28;20051;-69
2022/05/22 00:56:16;;;;;;;21.58;9.27;;;19.10;92.40;;;;;;5059420;28;20040;-69
2022/05/22 00:59:25;;;;;;;17.40;9.40;;;19.00;92.80;;;;;;5072015;28;20079;-69
2022/05/22 01:03:26;;;;;;;18.38;9.65;;;19.10;92.60;;;;;;5059925;28;20518;-69
2022/05/22 01:06:01;;;;;;;22.33;9.25;;;19.10;92.50;;;;;;5072091;28;20294;-69
2022/05/22 01:09:06;;;;;;;;;;;19.10;92.70;;;;;;5060112;28;20103;-69
2022/05/22 01:12:16;;;;;;;17.05;8.95;;;18.90;92.70;;;;;;5071938;28;19931;-69
2022/05/22 01:15:22;;;;;;;16.85;8.73;;;18.90;92.90;;;;;;5059360;28;20506;-69
2022/05/22 01:18:27;;;;;;;14.63;8.50;;;19.00;92.50;;;;;;5071763;28;20060;-69
2022/05/22 01:21:32;;;;;;;10.35;7.97;;;19.10;92.40;;;;;;5071695;28;20048;-69
2022/05/22 01:24:36;;;;;;;18.77;7.90;;;19.10;92.10;;;;;;5059642;28;20415;-69
2022/05/22 01:27:41;;;;;;;17.83;8.75;;;19.20;91.90;;;;;;5059544;28;20051;-69
2022/05/22 01:30:54;;;;;;;15.80;8.10;;;19.20;91.80;;;;;;5071915;28;20040;-69
2022/05/22 01:33:59;;;;;;;19.23;8.45;;;19.20;91.70;;;;;;5059496;28;20043;-69
2022/05/22 01:37:04;;;;;;;12.50;7.53;;;19.20;91.60;;;;;;5059394;28;20040;-69
2022/05/22 01:40:11;;;;;;;19.15;8.43;;;19.30;91.20;;;;;;5059138;28;20059;-69
2022/05/22 01:43:16;;;;;;;16.23;7.93;;;19.20;91.40;;;;;;5059049;28;20043;-69
2022/05/22 01:46:21;;;;;;;12.75;8.27;;;19.20;91.60;;;;;;5059025;28;20047;-69
2022/05/22 01:49:40;;;;;;;18.17;8.23;;;19.10;91.80;;;;;;5058920;28;20031;-69
2022/05/22 01:52:46;;;;;;;14.02;9.20;;;19.20;91.80;;;;;;5058640;28;20060;-69
2022/05/22 01:55:51;;;;;;;16.65;8.80;;;19.10;92.00;;;;;;5058742;28;20035;-69
2022/05/22 01:58:57;;;;;;;20.30;9.32;;;18.90;92.60;;;;;;5058848;28;20052;-69
2022/05/22 02:02:09;;;;;;;15.68;8.75;;;18.90;92.70;;;;;;5058830;28;20039;-68
2022/05/22 02:05:16;;;;;;;16.63;9.07;;;18.90;92.70;;;;;;5058848;28;20044;-69
2022/05/22 02:08:23;;;;;;;15.75;9.63;;;18.90;92.70;;;;;;5081681;28;20039;-69
2022/05/22 02:11:32;;;;;;;19.88;9.32;;;18.90;92.80;;;;;;5058397;28;20051;-69
2022/05/22 02:14:37;;;;;;;16.02;9.32;;;19.00;92.70;;;;;;5058311;28;20051;-69
2022/05/22 02:17:46;;;;;;;18.67;9.10;;;18.90;92.90;;;;;;5058622;28;20067;-69
2022/05/22 02:20:50;;;;;;;19.17;9.55;;;18.90;93.00;;;;;;5058568;28;20039;-69
2022/05/22 02:23:54;;;;;;;17.08;9.77;;;19.00;93.00;;;;;;5058578;28;20044;-69
2022/05/22 02:26:59;;;;;;;19.45;9.95;;;19.10;93.20;;;;;;5058306;28;20515;-69
2022/05/22 02:30:05;;;;;;;16.38;10.27;;;19.10;93.30;;;;;;5058258;28;20076;-69
2022/05/22 02:33:10;;;;;;;20.40;11.10;;;19.20;93.30;;;;;;5058701;28;20040;-69
2022/05/22 02:36:19;;;;;;;25.33;11.15;;;19.20;93.40;;;;;;5081531;28;20392;-68
2022/05/22 02:39:27;;;;;;;20.23;11.05;;;19.10;93.90;;;;;;5058288;28;20067;-69
2022/05/22 02:42:31;;;;;;;19.90;11.63;;;19.20;93.70;;;;;;5081342;28;20507;-69
2022/05/22 02:45:39;;;;;;;27.13;12.73;;;19.20;93.70;;;;;;5058240;28;20044;-68
2022/05/22 02:48:46;;;;;;;24.55;13.13;;;19.20;93.80;;;;;;5058485;28;20044;-69
2022/05/22 02:51:50;;;;;;;26.25;12.65;;;19.10;93.80;;;;;;5071401;28;20503;-69
2022/05/22 02:54:56;;;;;;;25.63;12.48;;;19.00;94.10;;;;;;5058318;28;20051;-69
2022/05/22 02:58:00;;;;;;;25.13;11.98;;;18.90;94.40;;;;;;5058874;28;20430;-69
2022/05/22 03:01:04;;;;;;;20.50;11.52;;;18.90;94.80;;;;;;5062165;28;20044;-69
2022/05/22 03:04:09;;;;;;;24.85;11.70;;;19.00;94.60;;;;;;5062359;28;20040;-69
2022/05/22 03:07:15;;;;;;;20.35;11.80;;;19.10;94.40;;;;;;5074667;28;20387;-69
2022/05/22 03:10:22;;;;;;;21.33;12.85;;;19.10;94.30;;;;;;5061904;28;20048;-70
2022/05/22 03:13:26;;;;;;;19.58;12.52;;;18.80;94.60;;;;;;5062118;28;20067;-69
2022/05/22 03:16:30;;;;;;;24.80;12.95;;;18.70;95.20;;;;;;5061757;28;20044;-69
2022/05/22 03:19:47;;;;;;;26.48;11.50;;;18.50;95.60;;;;;;5061741;28;20056;-69
2022/05/22 03:22:51;;;;;;;22.33;11.85;;;18.50;95.70;;;;;;5073855;28;20051;-69
2022/05/22 03:25:55;;;;;;;24.90;12.20;;;18.70;95.60;;;;;;5061238;28;20623;-69
2022/05/22 03:41:22;;;;;;;23.60;12.02;;;18.80;95.20;;;;;;5108607;27;20391;-71
2022/05/22 03:44:27;;;;;;;20.15;12.07;;;19.20;94.80;;;;;;5108650;28;20036;-72
2022/05/22 03:47:31;;;;;;;19.00;10.73;;;19.20;94.90;;;;;;5108848;28;20046;-72
2022/05/22 04:03:41;;;;;;;26.40;12.48;;;19.10;95.30;;;;;;5048171;28;20387;-68
2022/05/22 04:06:45;;;;;;;26.95;12.38;;;19.40;94.90;;;;;;5047212;28;20033;-68
2022/05/22 04:09:58;;;;;;;19.98;11.52;;;19.40;94.90;;;;;;5047551;28;20047;-68
2022/05/22 04:13:13;;;;;;;19.00;11.88;;;19.40;94.80;;;;;;5046983;28;20060;-68
2022/05/22 04:16:17;;;;;;;21.48;12.13;;;19.40;95.00;;;;;;5047395;28;20393;-68
2022/05/22 04:19:22;;;;;;;23.08;12.77;;;19.30;95.30;;;;;;5047245;28;20048;-68
2022/05/22 04:22:26;;;;;;;27.17;13.57;;;19.20;95.50;;;;;;5047038;28;20049;-68
2022/05/22 04:25:30;;;;;;;23.20;13.85;;;19.10;95.70;;;;;;5046823;28;20042;-68
2022/05/22 04:28:35;;;;;;;24.90;14.10;;;19.10;95.70;;;;;;5046717;28;20523;-68
2022/05/22 04:31:47;;;;;;;19.45;12.52;;;19.00;95.90;;;;;;5046702;28;20044;-68
2022/05/22 04:34:54;;;;;;;27.38;14.88;;;19.00;96.30;;;;;;5046775;28;20392;-68
2022/05/22 04:38:03;;;;;;;29.02;15.05;;;19.10;96.30;;;;;;5046460;28;20396;-68
2022/05/22 04:41:09;;;;;;;24.95;14.88;;;19.00;96.50;;;;;;5046755;28;20044;-68
2022/05/22 04:44:13;;;;;;;39.00;19.17;;;19.00;96.50;;;;;;5047380;28;20400;-68
2022/05/22 04:47:17;;;;;;;33.92;18.73;;;19.00;96.60;;;;;;5046579;28;20056;-68
2022/05/22 04:50:33;;;;;;;37.33;20.75;;;19.10;96.90;;;;;;5046733;28;20056;-68
2022/05/22 04:53:58;;;;;;;34.85;19.73;;;19.10;96.70;;;;;;5046427;28;20063;-68
2022/05/22 04:57:08;;;;;;;45.15;19.00;;;19.10;96.90;;;;;;5047238;28;20040;-68
2022/05/22 05:00:14;;;;;;;39.78;17.60;;;19.10;96.70;;;;;;5046301;28;20508;-68
2022/05/22 05:03:27;;;;;;;32.28;16.75;;;19.20;97.00;;;;;;5039013;28;20064;-68
2022/05/22 05:06:31;;;;;;;32.85;15.73;;;19.10;96.80;;;;;;5033028;28;20044;-68
2022/05/22 05:09:38;;;;;;;26.33;15.30;;;19.10;96.90;;;;;;5032980;28;20052;-68
2022/05/22 05:12:50;;;;;;;;;;;19.20;97.10;;;;;;5032667;28;20071;-68
2022/05/22 05:16:10;;;;;;;26.10;14.93;;;19.40;96.80;;;;;;5032763;28;19936;-72
2022/05/22 05:19:22;;;;;;;29.27;16.73;;;19.50;96.60;;;;;;5032933;28;20504;-72
2022/05/22 05:22:30;;;;;;;27.45;16.40;;;19.50;96.40;;;;;;5033048;28;20053;-72
2022/05/22 05:25:43;;;;;;;26.30;16.60;;;19.60;96.40;;;;;;5033116;28;20045;-72
2022/05/22 05:28:49;;;;;;;31.20;17.00;;;19.70;96.50;;;;;;5032799;28;20044;-73
2022/05/22 05:32:04;;;;;;;36.25;16.98;;;19.60;96.60;;;;;;5032523;28;20155;-72
2022/05/22 05:35:11;;;;;;;27.23;15.98;;;19.60;96.60;;;;;;5033670;28;20040;-75
2022/05/22 05:38:15;;;;;;;38.38;17.48;;;19.70;96.70;;;;;;5032640;28;20397;-73
2022/05/22 05:41:21;;;;;;;29.23;17.25;;;19.80;96.30;;;;;;5032412;28;20044;-72
2022/05/22 05:44:26;;;;;;;40.03;17.17;;;19.90;96.30;;;;;;5032214;28;20041;-73
2022/05/22 05:47:57;;;;;;;31.88;17.05;;;20.00;96.30;;;;;;5033357;28;20044;-72
2022/05/22 05:51:13;;;;;;;34.28;17.05;;;20.00;96.10;;;;;;5032262;28;20048;-72
2022/05/22 05:54:23;;;;;;;;;;;20.10;96.10;;;;;;5033110;28;20045;-73
2022/05/22 05:57:51;;;;;;;29.40;16.85;;;20.10;96.10;;;;;;5032898;28;19916;-73
2022/05/22 06:00:55;;;;;;;27.15;16.65;;;20.10;95.90;;;;;;5032912;28;20064;-74
2022/05/22 06:04:01;;;;;;;32.63;17.83;;;19.90;96.40;;;;;;5033608;28;20067;-74
2022/05/22 06:07:06;;;;;;;34.00;18.25;;;20.00;96.60;;;;;;5033259;28;20040;-73
2022/05/22 06:10:12;;;;;;;41.50;20.20;;;20.00;96.50;;;;;;5032641;28;20052;-73
2022/05/22 06:13:35;;;;;;;26.52;16.42;;;20.00;96.60;;;;;;5032909;28;20048;-73
2022/05/22 06:16:39;;;;;;;43.53;18.48;;;20.00;96.50;;;;;;5031505;28;20117;-73
2022/05/22 06:19:55;;;;;;;35.05;17.20;;;20.00;96.70;;;;;;5033140;28;20056;-73
2022/05/22 06:23:03;;;;;;;35.53;16.10;;;20.10;96.60;;;;;;5032233;28;20044;-74
2022/05/22 06:26:26;;;;;;;31.55;14.13;;;20.20;96.60;;;;;;5032311;28;20508;-74
2022/05/22 06:29:52;;;;;;;32.55;14.00;;;20.30;96.20;;;;;;5032152;28;20052;-73
2022/05/22 06:33:00;;;;;;;24.13;13.88;;;20.40;96.20;;;;;;5031527;28;20076;-73
2022/05/22 06:36:23;;;;;;;28.65;14.15;;;20.50;96.30;;;;;;5032344;28;20040;-73
2022/05/22 06:43:02;;;;;;;27.40;13.18;;;20.70;95.70;;;;;;5031454;28;20060;-73
2022/05/22 06:46:44;;;;;;;30.60;12.32;;;20.70;95.80;;;;;;5031906;28;20041;-73
2022/05/22 06:50:22;;;;;;;30.55;12.35;;;20.70;96.00;;;;;;5017877;28;20044;-73
2022/05/22 06:53:40;;;;;;;26.02;11.95;;;20.80;95.80;;;;;;5030976;28;20052;-73
2022/05/22 06:57:17;;;;;;;26.13;11.23;;;20.80;95.70;;;;;;5030693;28;20527;-74
2022/05/22 07:00:38;;;;;;;29.38;12.07;;;20.90;95.50;;;;;;5031095;28;20412;-73
2022/05/22 07:04:01;;;;;;;28.17;11.85;;;20.90;95.40;;;;;;5032041;28;20067;-74
2022/05/22 07:07:17;;;;;;;20.38;9.30;;;21.00;95.30;;;;;;5030780;28;20048;-72
2022/05/22 07:14:36;;;;;;;24.55;10.50;;;21.20;94.70;;;;;;5030780;28;20056;-73
2022/05/22 07:17:49;;;;;;;21.77;10.15;;;21.30;94.60;;;;;;5030805;28;20500;-74
2022/05/22 07:21:11;;;;;;;16.92;8.52;;;21.30;94.60;;;;;;5031245;28;20048;-73
2022/05/22 07:24:34;;;;;;;27.48;10.65;;;21.50;94.60;;;;;;5031252;28;20044;-73
2022/05/22 07:27:57;;;;;;;27.00;10.68;;;21.60;94.30;;;;;;5030935;28;20052;-74
2022/05/22 07:31:21;;;;;;;21.88;9.43;;;21.70;94.10;;;;;;5030483;28;20044;-73
2022/05/22 07:34:47;;;;;;;23.60;10.95;;;21.80;93.90;;;;;;5031413;28;20053;-73
2022/05/22 07:38:10;;;;;;;16.90;10.05;;;21.90;93.80;;;;;;5031520;28;20060;-73
2022/05/22 07:41:43;;;;;;;27.98;11.68;;;21.80;93.70;;;;;;5036096;28;20045;-73
2022/05/22 07:45:10;;;;;;;23.55;11.75;;;21.70;93.70;;;;;;5030999;28;20049;-74
2022/05/22 07:48:32;;;;;;;20.70;9.48;;;21.80;93.90;;;;;;5031117;28;20044;-73
2022/05/22 07:51:53;;;;;;;24.80;10.57;;;21.90;94.00;;;;;;5030105;28;20052;-73
2022/05/22 07:55:18;;;;;;;20.08;9.88;;;22.10;93.50;;;;;;5031141;28;20060;-73
2022/05/22 07:58:51;;;;;;;22.48;10.05;;;22.30;93.40;;;;;;5031328;28;20053;-73
2022/05/22 08:02:18;;;;;;;21.45;9.75;;;22.40;92.90;;;;;;5031010;28;20600;-72
2022/05/22 08:05:26;;;;;;;31.90;10.43;;;22.40;93.00;;;;;;5030095;28;20108;-73
2022/05/22 08:08:36;;;;;;;27.88;9.43;;;22.50;92.70;;;;;;5029943;28;20040;-73
2022/05/22 08:11:46;;;;;;;23.02;9.60;;;22.80;92.50;;;;;;5029954;28;20053;-73
2022/05/22 08:14:52;;;;;;;21.42;7.45;;;23.00;91.90;;;;;;5029843;28;20044;-73
2022/05/22 08:17:57;;;;;;;18.20;7.88;;;23.30;91.50;;;;;;5030572;28;20056;-73
2022/05/22 08:21:02;;;;;;;18.65;7.38;;;23.40;90.60;;;;;;5030490;28;20044;-73
2022/05/22 08:24:08;;;;;;;24.90;8.32;;;23.50;90.40;;;;;;5029967;28;20389;-73
2022/05/22 08:27:15;;;;;;;17.27;7.10;;;23.50;90.70;;;;;;5029576;28;20040;-73
2022/05/22 08:30:20;;;;;;;13.98;6.85;;;23.60;90.90;;;;;;5030043;28;20048;-73
2022/05/22 08:33:24;;;;;;;17.90;8.38;;;23.70;90.40;;;;;;5018106;28;20064;-73
2022/05/22 08:36:28;;;;;;;14.63;7.30;;;23.90;90.20;;;;;;5030849;28;20041;-73
2022/05/22 08:39:32;;;;;;;17.17;8.10;;;24.10;89.80;;;;;;5033803;28;20040;-73
2022/05/22 08:43:09;;;;;;;19.75;7.85;;;24.20;89.00;;;;;;5034312;28;20109;-73
2022/05/22 08:46:46;;;;;;;16.20;7.55;;;24.30;88.10;;;;;;5034596;28;20040;-73
2022/05/22 08:49:54;;;;;;;15.90;7.97;;;24.10;88.00;;;;;;5034149;28;20068;-73
2022/05/22 08:53:30;;;;;;;18.85;7.88;;;23.90;88.50;;;;;;5034049;28;20052;-73
2022/05/22 08:59:58;;;;;;;20.63;7.97;;;23.70;89.40;;;;;;5034026;28;20040;-73
2022/05/22 09:03:24;;;;;;;18.05;7.68;;;23.70;89.30;;;;;;5032607;28;20417;-74
2022/05/22 09:07:04;;;;;;;17.88;8.98;;;23.70;89.40;;;;;;5033696;28;20045;-73
2022/05/22 09:10:14;;;;;;;19.42;7.53;;;23.70;89.30;;;;;;5033928;28;20044;-72
2022/05/22 09:13:29;;;;;;;18.33;7.73;;;24.00;88.90;;;;;;5033550;28;20054;-72
2022/05/22 09:16:38;;;;;;;20.83;7.68;;;24.20;88.10;;;;;;5033757;28;20283;-72
2022/05/22 09:19:59;;;;;;;17.25;7.72;;;24.20;88.40;;;;;;5033685;28;20052;-71
2022/05/22 09:23:03;;;;;;;;;;;24.20;87.80;;;;;;5033906;28;20048;-72
2022/05/22 09:26:26;;;;;;;18.17;8.30;;;24.20;87.50;;;;;;5033289;28;19916;-72
2022/05/22 09:29:54;;;;;;;22.30;7.78;;;24.30;87.70;;;;;;5033306;28;20037;-75
2022/05/22 09:33:26;;;;;;;13.07;6.28;;;24.30;87.60;;;;;;5032483;28;20416;-72
2022/05/22 09:36:52;;;;;;;17.88;6.95;;;24.40;87.80;;;;;;5033555;28;20108;-72
2022/05/22 09:40:11;;;;;;;9.95;5.38;;;24.60;87.80;;;;;;5033475;28;20048;-75
2022/05/22 09:44:03;;;;;;;19.75;6.47;;;24.60;88.50;;;;;;5032230;28;20044;-75
2022/05/22 09:47:47;;;;;;;11.93;5.20;;;24.70;88.80;;;;;;5028818;28;20044;-73
2022/05/22 09:51:29;;;;;;;14.82;6.60;;;24.80;88.50;;;;;;5010041;28;20048;-73
2022/05/22 09:54:53;;;;;;;13.45;6.20;;;24.90;87.60;;;;;;5032920;28;20508;-73
2022/05/22 09:58:12;;;;;;;17.20;6.47;;;24.90;87.60;;;;;;5032910;28;20048;-72
2022/05/22 10:01:25;;;;;;;14.23;6.68;;;24.90;86.50;;;;;;5031734;28;20048;-72
2022/05/22 10:04:46;;;;;;;14.75;7.22;;;24.90;86.90;;;;;;5032034;28;20052;-72
2022/05/22 10:08:21;;;;;;;20.63;6.90;;;24.90;86.90;;;;;;5032592;28;20049;-73
2022/05/22 10:11:53;;;;;;;17.30;7.18;;;24.90;86.70;;;;;;5032605;28;20124;-73
2022/05/22 10:15:12;;;;;;;14.27;7.07;;;24.90;86.10;;;;;;5031649;28;20421;-72
2022/05/22 10:18:18;;;;;;;;;;;24.90;86.40;;;;;;5032693;28;20092;-73
2022/05/22 10:21:41;;;;;;;13.18;6.05;;;25.00;86.20;;;;;;5032481;28;20472;-72
2022/05/22 10:25:06;;;;;;;13.52;5.50;;;25.00;86.50;;;;;;5031949;28;20037;-74
2022/05/22 10:28:16;;;;;;;14.55;5.60;;;24.90;86.90;;;;;;5032259;28;20048;-73
2022/05/22 10:31:48;;;;;;;10.45;5.40;;;24.90;86.90;;;;;;5032443;28;20052;-73
2022/05/22 10:34:55;;;;;;;10.20;5.25;;;25.00;87.00;;;;;;5031727;28;20052;-72
2022/05/22 10:38:01;;;;;;;13.32;5.53;;;25.10;86.80;;;;;;5032142;28;20037;-73
2022/05/22 10:45:16;;;;;;;12.77;5.55;;;25.20;86.80;;;;;;5031109;28;20041;-71
2022/05/22 10:48:23;;;;;;;16.42;5.63;;;25.30;86.60;;;;;;5032272;28;20044;-74
2022/05/22 10:51:29;;;;;;;12.60;6.00;;;25.30;86.10;;;;;;5031641;28;20036;-72
2022/05/22 10:54:47;;;;;;;13.23;5.43;;;25.50;86.20;;;;;;5019890;28;20523;-74
2022/05/22 10:58:04;;;;;;;16.15;5.90;;;25.60;86.10;;;;;;5030881;28;20048;-74
2022/05/22 11:01:17;;;;;;;16.05;7.07;;;25.80;85.40;;;;;;5030477;28;20397;-72
2022/05/22 11:04:21;;;;;;;10.57;5.60;;;25.90;85.20;;;;;;5031964;28;20436;-72
2022/05/22 11:07:43;;;;;;;11.57;6.72;;;25.90;84.20;;;;;;5031804;28;20053;-71
2022/05/22 11:10:47;;;;;;;14.77;6.82;;;25.90;84.20;;;;;;5031448;28;20044;-72
2022/05/22 11:13:52;;;;;;;11.80;6.57;;;25.90;84.50;;;;;;5030454;28;20060;-73
2022/05/22 11:17:08;;;;;;;12.93;6.38;;;25.90;84.40;;;;;;5031532;28;20088;-72
2022/05/22 11:20:21;;;;;;;15.63;6.38;;;25.80;83.80;;;;;;5031203;28;20041;-74
2022/05/22 11:23:34;;;;;;;16.67;7.03;;;25.80;84.10;;;;;;5030968;28;20044;-71
2022/05/22 11:26:54;;;;;;;12.52;6.88;;;25.80;84.70;;;;;;5031099;28;20559;-71
2022/05/22 11:30:28;;;;;;;12.75;6.57;;;25.80;85.00;;;;;;5031108;28;20037;-72
2022/05/22 11:34:10;;;;;;;9.20;6.00;;;25.70;84.00;;;;;;5031114;28;20432;-73
2022/05/22 11:37:31;;;;;;;13.25;7.05;;;25.80;83.80;;;;;;5031477;28;20056;-72
2022/05/22 11:40:52;;;;;;;19.05;8.25;;;25.70;83.70;;;;;;5031185;28;20299;-74
2022/05/22 11:44:00;;;;;;;16.33;8.32;;;25.80;85.80;;;;;;5018914;28;20528;-74
2022/05/22 11:47:25;;;;;;;21.50;8.07;;;25.90;85.50;;;;;;5030540;28;20060;-73
2022/05/22 11:50:53;;;;;;;12.50;8.10;;;26.10;84.50;;;;;;5031061;28;20108;-73
2022/05/22 11:54:22;;;;;;;16.48;8.52;;;26.20;84.00;;;;;;5030707;28;20607;-72
2022/05/22 11:57:43;;;;;;;15.95;7.00;;;26.30;84.10;;;;;;5031051;28;20045;-73
2022/05/22 12:01:05;;;;;;;14.88;6.18;;;26.30;84.40;;;;;;5031228;28;20052;-76
2022/05/22 12:04:47;;;;;;;10.88;5.20;;;26.50;84.40;;;;;;5030747;28;20072;-74
2022/05/22 12:08:14;;;;;;;11.13;6.50;;;26.60;83.80;;;;;;5030836;28;20045;-72
2022/05/22 12:11:32;;;;;;;15.10;6.28;;;26.70;83.40;;;;;;5031036;28;20199;-74
2022/05/22 12:15:16;;;;;;;11.25;5.43;;;26.80;82.70;;;;;;5034059;28;20060;-73
2022/05/22 12:18:29;;;;;;;11.00;5.53;;;26.90;82.80;;;;;;5034987;28;20405;-73
2022/05/22 12:21:45;;;;;;;12.25;5.45;;;26.90;82.80;;;;;;5033961;28;20082;-74
2022/05/22 12:24:57;;;;;;;13.55;6.78;;;26.90;82.70;;;;;;5035356;28;20040;-76
2022/05/22 12:28:12;;;;;;;10.77;5.78;;;26.80;82.70;;;;;;5034773;28;20060;-71
2022/05/22 12:31:21;;;;;;;11.02;6.10;;;26.80;82.50;;;;;;5034658;28;20064;-72
2022/05/22 12:34:47;;;;;;;15.65;6.93;;;26.70;83.00;;;;;;5034472;28;20056;-72
2022/05/22 12:38:15;;;;;;;14.80;6.97;;;26.70;83.10;;;;;;5034573;28;20044;-74
2022/05/22 12:41:29;;;;;;;19.70;7.95;;;26.70;82.90;;;;;;5034257;28;20511;-71
2022/05/22 12:44:36;;;;;;;18.98;6.55;;;26.70;83.10;;;;;;5034851;28;20397;-73
2022/05/22 12:47:46;;;;;;;12.95;6.57;;;26.60;82.80;;;;;;5033216;28;20045;-72
2022/05/22 12:51:05;;;;;;;12.07;5.93;;;26.70;82.90;;;;;;5034280;28;20045;-71
2022/05/22 12:54:31;;;;;;;14.52;6.28;;;26.70;82.80;;;;;;5033244;28;20060;-73
2022/05/22 12:57:36;;;;;;;18.27;6.45;;;26.70;82.60;;;;;;5033371;28;20048;-73
2022/05/22 13:00:40;;;;;;;14.50;7.05;;;26.60;83.00;;;;;;5034281;28;20040;-72
2022/05/22 13:03:51;;;;;;;15.18;8.02;;;26.60;83.10;;;;;;5033820;28;20057;-72
2022/05/22 13:06:58;;;;;;;;;;;26.60;83.20;;;;;;5034087;28;20064;-73
2022/05/22 13:10:23;;;;;;;15.85;9.60;;;26.50;83.20;;;;;;5033330;28;19920;-72
2022/05/22 13:13:31;;;;;;;14.63;7.03;;;26.50;83.60;;;;;;5033584;28;20060;-72
2022/05/22 13:16:45;;;;;;;14.40;6.50;;;26.50;83.50;;;;;;5033792;28;20041;-72
2022/05/22 13:19:55;;;;;;;12.48;6.75;;;26.50;83.40;;;;;;5033654;28;20048;-73
2022/05/22 13:23:07;;;;;;;12.73;7.28;;;26.50;83.70;;;;;;5033350;28;20057;-75
2022/05/22 13:26:20;;;;;;;12.38;7.07;;;26.50;83.30;;;;;;5033648;28;20040;-72
2022/05/22 13:29:28;;;;;;;10.38;6.45;;;26.50;83.40;;;;;;5033616;28;20393;-72
2022/05/22 13:32:45;;;;;;;9.68;6.57;;;26.50;83.70;;;;;;5033238;28;20508;-71
2022/05/22 13:35:56;;;;;;;20.25;7.00;;;26.50;83.70;;;;;;5032599;28;20052;-73
2022/05/22 13:39:03;;;;;;;10.75;6.22;;;26.40;83.40;;;;;;5032413;28;20044;-73
2022/05/22 13:42:45;;;;;;;10.57;5.90;;;26.40;83.30;;;;;;5033178;28;20056;-73
2022/05/22 13:46:01;;;;;;;;;;;26.40;83.40;;;;;;5033585;28;20044;-75
2022/05/22 13:49:51;;;;;;;10.10;5.70;;;26.40;83.60;;;;;;5032269;28;19916;-73
2022/05/22 13:53:09;;;;;;;12.13;6.10;;;26.40;83.40;;;;;;5032829;28;20060;-73
2022/05/22 13:56:15;;;;;;;10.02;5.88;;;26.40;84.30;;;;;;5033064;28;20048;-71
2022/05/22 13:59:23;;;;;;;10.55;5.53;;;26.30;83.60;;;;;;5033048;28;20405;-73
2022/05/22 14:02:36;;;;;;;8.13;5.03;;;26.30;83.80;;;;;;5032843;28;20056;-73
2022/05/22 14:05:44;;;;;;;10.32;5.47;;;26.30;84.10;;;;;;5032921;28;20048;-72
2022/05/22 14:08:55;;;;;;;14.27;5.43;;;26.30;84.00;;;;;;5032693;28;20508;-72
2022/05/22 14:12:00;;;;;;;10.60;5.25;;;26.30;83.90;;;;;;5032659;28;20492;-74
2022/05/22 14:15:19;;;;;;;7.95;5.03;;;26.20;84.00;;;;;;5031656;28;20044;-73
2022/05/22 14:18:26;;;;;;;8.25;5.10;;;26.20;84.10;;;;;;5031960;28;20046;-76
2022/05/22 14:21:43;;;;;;;13.45;5.22;;;26.20;84.10;;;;;;5032809;28;20054;-74
2022/05/22 14:24:52;;;;;;;13.52;5.88;;;26.20;84.10;;;;;;5032748;28;20048;-73
2022/05/22 14:27:56;;;;;;;16.35;5.50;;;26.20;84.10;;;;;;5032398;28;20053;-72
2022/05/22 14:31:00;;;;;;;16.48;5.97;;;26.20;84.10;;;;;;5032414;28;20072;-73
2022/05/22 14:34:05;;;;;;;9.90;4.75;;;26.10;84.10;;;;;;5032066;28;20052;-71
2022/05/22 14:37:09;;;;;;;8.65;5.20;;;26.10;84.70;;;;;;5030837;28;20040;-74
2022/05/22 14:40:19;;;;;;;9.20;5.68;;;26.10;84.60;;;;;;5032374;28;20037;-72
2022/05/22 14:43:25;;;;;;;;;;;26.10;84.50;;;;;;5032263;28;20044;-73
2022/05/22 14:46:36;;;;;;;10.80;5.35;;;26.10;85.00;;;;;;5032030;28;20276;-73
2022/05/22 14:49:47;;;;;;;11.13;5.47;;;26.00;84.70;;;;;;5031927;28;20056;-75
2022/05/22 14:53:00;;;;;;;13.82;5.43;;;25.90;84.90;;;;;;5032055;28;20056;-72
2022/05/22 14:56:14;;;;;;;17.17;6.45;;;25.90;85.20;;;;;;5032108;28;20052;-71
2022/05/22 14:59:37;;;;;;;12.20;5.10;;;25.90;85.30;;;;;;5031726;28;20326;-72
2022/05/22 15:03:01;;;;;;;11.75;5.68;;;25.90;85.30;;;;;;5030755;28;20060;-74
2022/05/22 15:06:05;;;;;;;12.23;5.18;;;25.90;85.30;;;;;;5032071;28;20048;-72
2022/05/22 15:09:09;;;;;;;9.15;5.10;;;25.80;85.20;;;;;;5032016;28;20409;-73
2022/05/22 15:12:14;;;;;;;13.85;5.45;;;25.80;85.10;;;;;;5031653;28;20042;-73
2022/05/22 15:15:29;;;;;;;13.32;5.47;;;25.80;85.10;;;;;;5032265;28;20527;-72
2022/05/22 15:22:02;;;;;;;14.65;4.85;;;25.90;85.50;;;;;;5031577;28;20053;-72
2022/05/22 15:25:29;;;;;;;9.77;5.30;;;25.80;85.20;;;;;;5031751;28;20053;-72
2022/05/22 15:28:33;;;;;;;9.15;4.10;;;25.80;85.20;;;;;;5031750;28;20151;-72
2022/05/22 15:31:40;;;;;;;10.05;5.72;;;25.80;85.00;;;;;;5031352;28;20054;-71
2022/05/22 15:34:57;;;;;;;9.38;4.70;;;25.80;84.90;;;;;;5030667;28;20052;-74
2022/05/22 15:38:01;;;;;;;10.25;5.30;;;25.80;85.20;;;;;;5031261;28;20196;-71
2022/05/22 15:41:26;;;;;;;19.73;5.47;;;25.80;85.50;;;;;;5031584;28;20405;-71
2022/05/22 15:44:34;;;;;;;15.07;4.88;;;25.70;85.20;;;;;;5031237;28;20040;-73
2022/05/22 15:47:38;;;;;;;10.48;4.30;;;25.70;85.30;;;;;;5031215;28;20052;-73
2022/05/22 15:50:45;;;;;;;11.68;5.07;;;25.60;85.40;;;;;;5032627;28;20504;-72
2022/05/22 15:53:49;;;;;;;12.77;7.35;;;25.60;85.70;;;;;;5031130;28;20060;-71
2022/05/22 15:56:57;;;;;;;15.90;7.00;;;25.60;85.90;;;;;;5030565;28;20052;-73
2022/05/22 16:00:03;;;;;;;24.73;12.50;;;25.50;85.90;;;;;;5031510;28;20068;-71
2022/05/22 16:03:15;;;;;;;18.00;8.65;;;25.50;86.50;;;;;;5031933;28;20057;-71
2022/05/22 16:06:26;;;;;;;27.58;11.38;;;25.40;86.70;;;;;;5032461;28;20045;-74
2022/05/22 16:09:30;;;;;;;22.20;9.07;;;25.30;87.00;;;;;;5032585;28;20056;-74
2022/05/22 16:12:40;;;;;;;12.52;6.80;;;25.30;86.60;;;;;;5031365;28;20044;-74
2022/05/22 16:15:44;;;;;;;13.48;6.22;;;25.30;85.70;;;;;;5032029;28;20064;-72
2022/05/22 16:18:49;;;;;;;17.17;6.43;;;25.30;85.80;;;;;;5031407;28;20048;-72
2022/05/22 16:21:54;;;;;;;21.42;8.00;;;25.30;85.80;;;;;;5030652;28;20052;-74
2022/05/22 16:25:00;;;;;;;17.15;7.75;;;25.30;85.60;;;;;;5030840;28;20045;-74
2022/05/22 16:28:05;;;;;;;13.90;5.93;;;25.30;85.80;;;;;;5030305;28;20294;-73
2022/05/22 16:31:35;;;;;;;17.15;8.30;;;25.30;85.60;;;;;;5031438;28;20045;-72
2022/05/22 16:34:41;;;;;;;19.13;8.85;;;25.20;85.80;;;;;;5030565;28;20052;-74
2022/05/22 16:37:46;;;;;;;15.95;6.05;;;25.20;85.90;;;;;;5031657;28;20522;-75
2022/05/22 16:40:51;;;;;;;10.32;4.95;;;25.10;85.90;;;;;;5031887;28;20057;-71
2022/05/22 16:43:57;;;;;;;17.30;5.07;;;25.00;85.90;;;;;;5032233;28;20405;-73
2022/05/22 16:53:01;;;;;;;9.60;4.85;;;25.00;86.00;;;;;;5031797;28;20044;-73
2022/05/22 16:53:55;;;;;;;17.48;5.55;;;24.80;86.30;;;;;;5031216;28;20053;-75
2022/05/22 16:56:59;;;;;;;12.05;5.70;;;24.70;86.70;;;;;;5031493;28;20060;-72
2022/05/22 17:00:05;;;;;;;8.75;4.50;;;24.70;86.80;;;;;;5033219;28;20045;-73
2022/05/22 17:03:30;;;;;;;11.00;4.90;;;24.60;86.60;;;;;;5033960;28;20049;-74
2022/05/22 17:06:39;;;;;;;11.25;5.13;;;24.60;86.60;;;;;;5035500;28;20041;-73
2022/05/22 17:09:47;;;;;;;15.13;5.70;;;24.60;86.60;;;;;;5034892;28;20064;-72
2022/05/22 17:12:51;;;;;;;17.02;5.88;;;24.50;86.70;;;;;;5022901;28;20040;-73
2022/05/22 17:15:57;;;;;;;10.88;5.35;;;24.50;87.00;;;;;;5035490;28;20045;-77
2022/05/22 17:19:01;;;;;;;14.45;5.97;;;24.40;87.30;;;;;;5034329;28;20516;-73